sensor_id;sensor_type;location;lat;lon;timestamp;P1;durP1;ratioP1;P2;durP2;ratioP2
15112;SDS011;7657;50.140;7.076;2023-02-16T00:01:43;33.63;;;20.70;;
15112;SDS011;7657;50.140;7.076;2023-02-16T00:04:12;32.30;;;20.73;;
15112;SDS011;7657;50.140;7.076;2023-02-16T00:06:44;35.63;;;20.73;;
15112;SDS011;7657;50.140;7.076;2023-02-16T00:09:11;34.40;;;21.70;;
15112;SDS011;7657;50.140;7.076;2023-02-16T00:11:38;35.67;;;21.23;;
15112;SDS011;7657;50.140;7.076;2023-02-16T00:14:24;32.80;;;21.03;;
15112;SDS011;7657;50.140;7.076;2023-02-16T00:16:52;31.63;;;20.33;;
15112;SDS011;7657;50.140;7.076;2023-02-16T00:19:21;33.10;;;21.03;;
15112;SDS011;7657;50.140;7.076;2023-02-16T00:21:52;32.30;;;19.67;;
15112;SDS011;7657;50.140;7.076;2023-02-16T00:24:20;31.47;;;19.40;;
15112;SDS011;7657;50.140;7.076;2023-02-16T00:26:48;29.97;;;19.47;;
15112;SDS011;7657;50.140;7.076;2023-02-16T00:29:17;31.17;;;20.00;;
15112;SDS011;7657;50.140;7.076;2023-02-16T00:31:46;34.97;;;20.83;;
15112;SDS011;7657;50.140;7.076;2023-02-16T00:36:59;31.03;;;20.07;;
15112;SDS011;7657;50.140;7.076;2023-02-16T00:39:27;34.53;;;21.03;;
15112;SDS011;7657;50.140;7.076;2023-02-16T00:41:55;36.20;;;21.00;;
15112;SDS011;7657;50.140;7.076;2023-02-16T00:44:28;35.97;;;21.93;;
15112;SDS011;7657;50.140;7.076;2023-02-16T00:46:58;34.17;;;21.70;;
15112;SDS011;7657;50.140;7.076;2023-02-16T00:49:36;34.90;;;22.00;;
15112;SDS011;7657;50.140;7.076;2023-02-16T00:52:07;36.47;;;24.27;;
15112;SDS011;7657;50.140;7.076;2023-02-16T00:54:48;34.73;;;21.37;;
15112;SDS011;7657;50.140;7.076;2023-02-16T00:57:15;35.20;;;22.70;;
15112;SDS011;7657;50.140;7.076;2023-02-16T00:59:44;33.37;;;22.10;;
15112;SDS011;7657;50.140;7.076;2023-02-16T01:02:12;34.87;;;21.33;;
15112;SDS011;7657;50.140;7.076;2023-02-16T01:04:39;38.97;;;22.60;;
15112;SDS011;7657;50.140;7.076;2023-02-16T01:07:09;33.70;;;21.70;;
15112;SDS011;7657;50.140;7.076;2023-02-16T01:09:54;40.03;;;23.73;;
15112;SDS011;7657;50.140;7.076;2023-02-16T01:12:39;35.10;;;22.87;;
15112;SDS011;7657;50.140;7.076;2023-02-16T01:15:09;39.67;;;22.77;;
15112;SDS011;7657;50.140;7.076;2023-02-16T01:17:39;38.20;;;22.47;;
15112;SDS011;7657;50.140;7.076;2023-02-16T01:20:09;36.80;;;21.87;;
15112;SDS011;7657;50.140;7.076;2023-02-16T01:22:42;37.47;;;23.63;;
15112;SDS011;7657;50.140;7.076;2023-02-16T01:25:09;32.80;;;22.30;;
15112;SDS011;7657;50.140;7.076;2023-02-16T01:27:36;39.60;;;23.97;;
15112;SDS011;7657;50.140;7.076;2023-02-16T01:30:04;37.57;;;23.17;;
15112;SDS011;7657;50.140;7.076;2023-02-16T01:32:37;37.50;;;23.87;;
15112;SDS011;7657;50.140;7.076;2023-02-16T01:35:04;35.60;;;22.57;;
15112;SDS011;7657;50.140;7.076;2023-02-16T01:37:31;36.17;;;23.07;;
15112;SDS011;7657;50.140;7.076;2023-02-16T01:40:00;39.57;;;23.83;;
15112;SDS011;7657;50.140;7.076;2023-02-16T01:42:29;34.90;;;22.57;;
15112;SDS011;7657;50.140;7.076;2023-02-16T01:45:00;38.60;;;23.30;;
15112;SDS011;7657;50.140;7.076;2023-02-16T01:47:35;39.00;;;24.23;;
15112;SDS011;7657;50.140;7.076;2023-02-16T01:50:14;37.17;;;23.57;;
15112;SDS011;7657;50.140;7.076;2023-02-16T01:52:43;41.20;;;24.80;;
15112;SDS011;7657;50.140;7.076;2023-02-16T01:55:17;39.13;;;23.87;;
15112;SDS011;7657;50.140;7.076;2023-02-16T01:57:50;41.30;;;25.20;;
15112;SDS011;7657;50.140;7.076;2023-02-16T02:00:25;36.70;;;23.40;;
15112;SDS011;7657;50.140;7.076;2023-02-16T02:02:54;41.50;;;24.07;;
15112;SDS011;7657;50.140;7.076;2023-02-16T02:05:44;37.63;;;23.47;;
15112;SDS011;7657;50.140;7.076;2023-02-16T02:08:13;38.90;;;23.70;;
15112;SDS011;7657;50.140;7.076;2023-02-16T02:10:51;37.70;;;24.10;;
15112;SDS011;7657;50.140;7.076;2023-02-16T02:13:27;38.00;;;24.53;;
15112;SDS011;7657;50.140;7.076;2023-02-16T02:15:59;36.50;;;23.30;;
15112;SDS011;7657;50.140;7.076;2023-02-16T02:18:27;40.87;;;23.80;;
15112;SDS011;7657;50.140;7.076;2023-02-16T02:21:03;38.40;;;23.33;;
15112;SDS011;7657;50.140;7.076;2023-02-16T02:24:04;41.23;;;24.20;;
15112;SDS011;7657;50.140;7.076;2023-02-16T02:26:58;39.30;;;24.23;;
15112;SDS011;7657;50.140;7.076;2023-02-16T02:29:47;38.43;;;24.50;;
15112;SDS011;7657;50.140;7.076;2023-02-16T02:32:51;41.30;;;24.67;;
15112;SDS011;7657;50.140;7.076;2023-02-16T02:35:33;42.43;;;24.93;;
15112;SDS011;7657;50.140;7.076;2023-02-16T02:38:09;39.63;;;25.00;;
15112;SDS011;7657;50.140;7.076;2023-02-16T02:40:43;43.03;;;24.97;;
15112;SDS011;7657;50.140;7.076;2023-02-16T02:43:20;40.07;;;24.90;;
15112;SDS011;7657;50.140;7.076;2023-02-16T02:45:51;39.07;;;23.97;;
15112;SDS011;7657;50.140;7.076;2023-02-16T02:48:20;39.70;;;25.07;;
15112;SDS011;7657;50.140;7.076;2023-02-16T02:50:48;40.80;;;25.33;;
15112;SDS011;7657;50.140;7.076;2023-02-16T02:53:36;41.00;;;25.63;;
15112;SDS011;7657;50.140;7.076;2023-02-16T02:56:06;40.23;;;24.73;;
15112;SDS011;7657;50.140;7.076;2023-02-16T02:58:55;45.00;;;26.43;;
15112;SDS011;7657;50.140;7.076;2023-02-16T03:01:45;43.57;;;25.77;;
15112;SDS011;7657;50.140;7.076;2023-02-16T03:04:15;43.47;;;26.53;;
15112;SDS011;7657;50.140;7.076;2023-02-16T03:06:50;45.30;;;26.93;;
15112;SDS011;7657;50.140;7.076;2023-02-16T03:09:21;43.47;;;25.37;;
15112;SDS011;7657;50.140;7.076;2023-02-16T03:11:48;44.13;;;27.83;;
15112;SDS011;7657;50.140;7.076;2023-02-16T03:14:36;43.70;;;26.70;;
15112;SDS011;7657;50.140;7.076;2023-02-16T03:17:08;41.67;;;25.70;;
15112;SDS011;7657;50.140;7.076;2023-02-16T03:19:55;40.23;;;25.60;;
15112;SDS011;7657;50.140;7.076;2023-02-16T03:22:42;41.90;;;26.00;;
15112;SDS011;7657;50.140;7.076;2023-02-16T03:25:28;40.93;;;24.73;;
15112;SDS011;7657;50.140;7.076;2023-02-16T03:28:13;38.80;;;24.23;;
15112;SDS011;7657;50.140;7.076;2023-02-16T03:31:02;39.13;;;23.57;;
15112;SDS011;7657;50.140;7.076;2023-02-16T03:33:30;44.03;;;25.60;;
15112;SDS011;7657;50.140;7.076;2023-02-16T03:35:58;43.93;;;26.90;;
15112;SDS011;7657;50.140;7.076;2023-02-16T03:38:25;41.07;;;24.67;;
15112;SDS011;7657;50.140;7.076;2023-02-16T03:40:53;39.90;;;24.40;;
15112;SDS011;7657;50.140;7.076;2023-02-16T03:43:23;41.07;;;25.80;;
15112;SDS011;7657;50.140;7.076;2023-02-16T03:45:50;42.30;;;25.30;;
15112;SDS011;7657;50.140;7.076;2023-02-16T03:48:19;43.23;;;25.60;;
15112;SDS011;7657;50.140;7.076;2023-02-16T03:50:46;46.37;;;28.07;;
15112;SDS011;7657;50.140;7.076;2023-02-16T03:53:13;42.57;;;25.93;;
15112;SDS011;7657;50.140;7.076;2023-02-16T03:55:41;44.17;;;25.63;;
15112;SDS011;7657;50.140;7.076;2023-02-16T03:58:10;42.37;;;25.17;;
15112;SDS011;7657;50.140;7.076;2023-02-16T04:00:38;41.77;;;25.23;;
15112;SDS011;7657;50.140;7.076;2023-02-16T04:03:06;39.30;;;23.97;;
15112;SDS011;7657;50.140;7.076;2023-02-16T04:05:35;40.33;;;24.37;;
15112;SDS011;7657;50.140;7.076;2023-02-16T04:08:03;42.13;;;25.33;;
15112;SDS011;7657;50.140;7.076;2023-02-16T04:10:30;40.13;;;24.50;;
15112;SDS011;7657;50.140;7.076;2023-02-16T04:12:58;39.23;;;25.97;;
15112;SDS011;7657;50.140;7.076;2023-02-16T04:15:25;39.60;;;24.90;;
15112;SDS011;7657;50.140;7.076;2023-02-16T04:17:53;41.37;;;24.90;;
15112;SDS011;7657;50.140;7.076;2023-02-16T04:20:22;40.00;;;24.07;;
15112;SDS011;7657;50.140;7.076;2023-02-16T04:22:51;39.20;;;24.00;;
15112;SDS011;7657;50.140;7.076;2023-02-16T04:25:19;38.97;;;24.07;;
15112;SDS011;7657;50.140;7.076;2023-02-16T04:27:46;37.77;;;23.20;;
15112;SDS011;7657;50.140;7.076;2023-02-16T04:30:15;40.30;;;23.60;;
15112;SDS011;7657;50.140;7.076;2023-02-16T04:32:44;38.63;;;24.07;;
15112;SDS011;7657;50.140;7.076;2023-02-16T04:35:11;36.97;;;23.37;;
15112;SDS011;7657;50.140;7.076;2023-02-16T04:37:38;40.13;;;23.37;;
15112;SDS011;7657;50.140;7.076;2023-02-16T04:40:07;40.57;;;23.37;;
15112;SDS011;7657;50.140;7.076;2023-02-16T04:42:37;38.57;;;24.10;;
15112;SDS011;7657;50.140;7.076;2023-02-16T04:45:04;37.20;;;22.57;;
15112;SDS011;7657;50.140;7.076;2023-02-16T04:47:32;37.03;;;23.60;;
15112;SDS011;7657;50.140;7.076;2023-02-16T04:49:59;37.07;;;23.57;;
15112;SDS011;7657;50.140;7.076;2023-02-16T04:52:26;40.10;;;24.20;;
15112;SDS011;7657;50.140;7.076;2023-02-16T04:54:53;42.97;;;24.90;;
15112;SDS011;7657;50.140;7.076;2023-02-16T04:57:21;39.07;;;24.10;;
15112;SDS011;7657;50.140;7.076;2023-02-16T04:59:50;40.60;;;25.03;;
15112;SDS011;7657;50.140;7.076;2023-02-16T05:02:17;41.87;;;25.47;;
15112;SDS011;7657;50.140;7.076;2023-02-16T05:04:43;44.63;;;26.37;;
15112;SDS011;7657;50.140;7.076;2023-02-16T05:07:10;43.00;;;27.03;;
15112;SDS011;7657;50.140;7.076;2023-02-16T05:09:37;47.03;;;28.23;;
15112;SDS011;7657;50.140;7.076;2023-02-16T05:12:04;41.93;;;26.17;;
15112;SDS011;7657;50.140;7.076;2023-02-16T05:14:51;47.47;;;28.73;;
15112;SDS011;7657;50.140;7.076;2023-02-16T05:17:19;44.47;;;29.03;;
15112;SDS011;7657;50.140;7.076;2023-02-16T05:19:47;43.80;;;26.80;;
15112;SDS011;7657;50.140;7.076;2023-02-16T05:22:16;45.03;;;27.73;;
15112;SDS011;7657;50.140;7.076;2023-02-16T05:24:43;43.37;;;27.67;;
15112;SDS011;7657;50.140;7.076;2023-02-16T05:27:10;40.07;;;25.80;;
15112;SDS011;7657;50.140;7.076;2023-02-16T05:29:39;41.90;;;25.57;;
15112;SDS011;7657;50.140;7.076;2023-02-16T05:32:07;42.27;;;25.03;;
15112;SDS011;7657;50.140;7.076;2023-02-16T05:34:34;42.13;;;26.30;;
15112;SDS011;7657;50.140;7.076;2023-02-16T05:37:01;41.47;;;25.87;;
15112;SDS011;7657;50.140;7.076;2023-02-16T05:39:28;36.77;;;23.77;;
15112;SDS011;7657;50.140;7.076;2023-02-16T05:41:55;40.70;;;25.00;;
15112;SDS011;7657;50.140;7.076;2023-02-16T05:44:22;41.53;;;24.87;;
15112;SDS011;7657;50.140;7.076;2023-02-16T05:46:49;39.80;;;23.83;;
15112;SDS011;7657;50.140;7.076;2023-02-16T05:49:18;43.37;;;25.03;;
15112;SDS011;7657;50.140;7.076;2023-02-16T05:51:45;41.87;;;25.13;;
15112;SDS011;7657;50.140;7.076;2023-02-16T05:54:12;43.50;;;27.20;;
15112;SDS011;7657;50.140;7.076;2023-02-16T05:56:42;40.90;;;25.13;;
15112;SDS011;7657;50.140;7.076;2023-02-16T05:59:10;44.93;;;26.20;;
15112;SDS011;7657;50.140;7.076;2023-02-16T06:01:37;41.67;;;26.40;;
15112;SDS011;7657;50.140;7.076;2023-02-16T06:04:05;43.93;;;26.00;;
15112;SDS011;7657;50.140;7.076;2023-02-16T06:06:34;43.73;;;26.67;;
15112;SDS011;7657;50.140;7.076;2023-02-16T06:09:02;43.43;;;25.50;;
15112;SDS011;7657;50.140;7.076;2023-02-16T06:11:30;41.93;;;25.57;;
15112;SDS011;7657;50.140;7.076;2023-02-16T06:14:06;41.07;;;24.23;;
15112;SDS011;7657;50.140;7.076;2023-02-16T06:16:34;40.13;;;24.80;;
15112;SDS011;7657;50.140;7.076;2023-02-16T06:19:03;38.87;;;24.57;;
15112;SDS011;7657;50.140;7.076;2023-02-16T06:21:30;45.23;;;26.03;;
15112;SDS011;7657;50.140;7.076;2023-02-16T06:24:02;41.97;;;25.57;;
15112;SDS011;7657;50.140;7.076;2023-02-16T06:26:30;43.23;;;24.80;;
15112;SDS011;7657;50.140;7.076;2023-02-16T06:28:57;42.77;;;24.70;;
15112;SDS011;7657;50.140;7.076;2023-02-16T06:31:24;43.20;;;25.10;;
15112;SDS011;7657;50.140;7.076;2023-02-16T06:33:51;39.97;;;24.90;;
15112;SDS011;7657;50.140;7.076;2023-02-16T06:36:20;42.40;;;25.97;;
15112;SDS011;7657;50.140;7.076;2023-02-16T06:38:47;42.03;;;25.20;;
15112;SDS011;7657;50.140;7.076;2023-02-16T06:41:16;41.03;;;24.00;;
15112;SDS011;7657;50.140;7.076;2023-02-16T06:43:55;39.03;;;24.27;;
15112;SDS011;7657;50.140;7.076;2023-02-16T06:46:23;37.83;;;23.53;;
15112;SDS011;7657;50.140;7.076;2023-02-16T06:48:50;40.33;;;24.33;;
15112;SDS011;7657;50.140;7.076;2023-02-16T06:51:17;38.20;;;24.53;;
15112;SDS011;7657;50.140;7.076;2023-02-16T06:53:44;39.23;;;23.73;;
15112;SDS011;7657;50.140;7.076;2023-02-16T06:56:11;40.40;;;26.77;;
15112;SDS011;7657;50.140;7.076;2023-02-16T06:58:40;45.03;;;26.47;;
15112;SDS011;7657;50.140;7.076;2023-02-16T07:01:06;36.80;;;24.13;;
15112;SDS011;7657;50.140;7.076;2023-02-16T07:03:33;40.40;;;24.17;;
15112;SDS011;7657;50.140;7.076;2023-02-16T07:06:00;39.93;;;25.07;;
15112;SDS011;7657;50.140;7.076;2023-02-16T07:08:27;41.87;;;25.40;;
15112;SDS011;7657;50.140;7.076;2023-02-16T07:10:54;36.30;;;23.27;;
15112;SDS011;7657;50.140;7.076;2023-02-16T07:13:21;35.30;;;22.60;;
15112;SDS011;7657;50.140;7.076;2023-02-16T07:15:49;35.03;;;21.90;;
15112;SDS011;7657;50.140;7.076;2023-02-16T07:18:16;33.37;;;21.07;;
15112;SDS011;7657;50.140;7.076;2023-02-16T07:20:43;31.40;;;21.07;;
15112;SDS011;7657;50.140;7.076;2023-02-16T07:23:10;36.97;;;23.47;;
15112;SDS011;7657;50.140;7.076;2023-02-16T07:25:37;35.03;;;21.50;;
15112;SDS011;7657;50.140;7.076;2023-02-16T07:28:04;32.37;;;20.17;;
15112;SDS011;7657;50.140;7.076;2023-02-16T07:30:30;34.20;;;21.53;;
15112;SDS011;7657;50.140;7.076;2023-02-16T07:32:59;36.30;;;21.93;;
15112;SDS011;7657;50.140;7.076;2023-02-16T07:35:26;36.63;;;22.67;;
15112;SDS011;7657;50.140;7.076;2023-02-16T07:37:52;34.27;;;21.37;;
15112;SDS011;7657;50.140;7.076;2023-02-16T07:40:19;36.60;;;22.60;;
15112;SDS011;7657;50.140;7.076;2023-02-16T07:42:46;32.50;;;20.60;;
15112;SDS011;7657;50.140;7.076;2023-02-16T07:45:13;35.03;;;20.63;;
15112;SDS011;7657;50.140;7.076;2023-02-16T07:47:40;31.17;;;20.87;;
15112;SDS011;7657;50.140;7.076;2023-02-16T07:50:09;36.97;;;21.23;;
15112;SDS011;7657;50.140;7.076;2023-02-16T07:52:36;33.17;;;20.67;;
15112;SDS011;7657;50.140;7.076;2023-02-16T07:55:03;33.97;;;20.67;;
15112;SDS011;7657;50.140;7.076;2023-02-16T07:57:31;32.57;;;20.90;;
15112;SDS011;7657;50.140;7.076;2023-02-16T07:59:58;35.80;;;22.20;;
15112;SDS011;7657;50.140;7.076;2023-02-16T08:02:24;31.73;;;20.50;;
15112;SDS011;7657;50.140;7.076;2023-02-16T08:04:52;35.43;;;22.03;;
15112;SDS011;7657;50.140;7.076;2023-02-16T08:07:20;32.47;;;21.07;;
15112;SDS011;7657;50.140;7.076;2023-02-16T08:09:47;34.77;;;21.07;;
15112;SDS011;7657;50.140;7.076;2023-02-16T08:12:15;31.57;;;20.60;;
15112;SDS011;7657;50.140;7.076;2023-02-16T08:14:42;31.03;;;20.63;;
15112;SDS011;7657;50.140;7.076;2023-02-16T08:17:10;29.83;;;19.40;;
15112;SDS011;7657;50.140;7.076;2023-02-16T08:19:37;29.53;;;19.37;;
15112;SDS011;7657;50.140;7.076;2023-02-16T08:22:05;31.70;;;20.67;;
15112;SDS011;7657;50.140;7.076;2023-02-16T08:24:34;31.33;;;18.90;;
15112;SDS011;7657;50.140;7.076;2023-02-16T08:27:01;32.70;;;20.50;;
15112;SDS011;7657;50.140;7.076;2023-02-16T08:29:30;32.70;;;20.33;;
15112;SDS011;7657;50.140;7.076;2023-02-16T08:31:57;33.20;;;21.03;;
15112;SDS011;7657;50.140;7.076;2023-02-16T08:34:25;30.33;;;19.57;;
15112;SDS011;7657;50.140;7.076;2023-02-16T08:36:53;31.77;;;19.33;;
15112;SDS011;7657;50.140;7.076;2023-02-16T08:39:21;30.27;;;19.00;;
15112;SDS011;7657;50.140;7.076;2023-02-16T08:41:51;31.70;;;18.83;;
15112;SDS011;7657;50.140;7.076;2023-02-16T08:44:19;30.17;;;18.43;;
15112;SDS011;7657;50.140;7.076;2023-02-16T08:46:48;30.93;;;20.10;;
15112;SDS011;7657;50.140;7.076;2023-02-16T08:49:17;29.43;;;19.63;;
15112;SDS011;7657;50.140;7.076;2023-02-16T08:51:46;28.27;;;18.33;;
15112;SDS011;7657;50.140;7.076;2023-02-16T08:54:15;29.47;;;19.27;;
15112;SDS011;7657;50.140;7.076;2023-02-16T08:56:43;30.70;;;20.57;;
15112;SDS011;7657;50.140;7.076;2023-02-16T08:59:14;30.27;;;19.03;;
15112;SDS011;7657;50.140;7.076;2023-02-16T09:01:42;33.70;;;23.13;;
15112;SDS011;7657;50.140;7.076;2023-02-16T09:04:10;26.97;;;17.60;;
15112;SDS011;7657;50.140;7.076;2023-02-16T09:06:37;28.10;;;18.93;;
15112;SDS011;7657;50.140;7.076;2023-02-16T09:09:05;27.30;;;18.03;;
15112;SDS011;7657;50.140;7.076;2023-02-16T09:11:33;27.63;;;18.03;;
15112;SDS011;7657;50.140;7.076;2023-02-16T09:14:00;26.97;;;18.73;;
15112;SDS011;7657;50.140;7.076;2023-02-16T09:16:30;35.33;;;25.50;;
15112;SDS011;7657;50.140;7.076;2023-02-16T09:18:58;28.67;;;19.80;;
15112;SDS011;7657;50.140;7.076;2023-02-16T09:21:26;31.10;;;21.47;;
15112;SDS011;7657;50.140;7.076;2023-02-16T09:23:56;27.50;;;17.53;;
15112;SDS011;7657;50.140;7.076;2023-02-16T09:26:25;27.03;;;18.20;;
15112;SDS011;7657;50.140;7.076;2023-02-16T09:28:53;24.37;;;17.73;;
15112;SDS011;7657;50.140;7.076;2023-02-16T09:31:21;27.73;;;17.23;;
15112;SDS011;7657;50.140;7.076;2023-02-16T09:33:53;26.07;;;16.43;;
15112;SDS011;7657;50.140;7.076;2023-02-16T09:36:21;150.50;;;71.10;;
15112;SDS011;7657;50.140;7.076;2023-02-16T09:38:48;36.50;;;23.17;;
15112;SDS011;7657;50.140;7.076;2023-02-16T09:41:18;42.27;;;30.73;;
15112;SDS011;7657;50.140;7.076;2023-02-16T09:43:54;52.27;;;30.90;;
15112;SDS011;7657;50.140;7.076;2023-02-16T09:46:25;51.27;;;32.57;;
15112;SDS011;7657;50.140;7.076;2023-02-16T09:48:55;58.93;;;36.00;;
15112;SDS011;7657;50.140;7.076;2023-02-16T09:51:23;49.50;;;33.50;;
15112;SDS011;7657;50.140;7.076;2023-02-16T09:53:54;69.57;;;47.03;;
15112;SDS011;7657;50.140;7.076;2023-02-16T09:56:27;39.03;;;27.73;;
15112;SDS011;7657;50.140;7.076;2023-02-16T09:59:00;32.90;;;23.20;;
15112;SDS011;7657;50.140;7.076;2023-02-16T10:01:32;26.13;;;18.77;;
15112;SDS011;7657;50.140;7.076;2023-02-16T10:04:26;25.70;;;17.43;;
15112;SDS011;7657;50.140;7.076;2023-02-16T10:07:00;27.23;;;18.20;;
15112;SDS011;7657;50.140;7.076;2023-02-16T10:09:37;31.73;;;22.67;;
15112;SDS011;7657;50.140;7.076;2023-02-16T10:12:06;28.67;;;19.73;;
15112;SDS011;7657;50.140;7.076;2023-02-16T10:14:36;24.13;;;15.40;;
15112;SDS011;7657;50.140;7.076;2023-02-16T10:17:11;24.20;;;17.20;;
15112;SDS011;7657;50.140;7.076;2023-02-16T10:19:45;22.27;;;15.10;;
15112;SDS011;7657;50.140;7.076;2023-02-16T10:22:15;25.07;;;15.67;;
15112;SDS011;7657;50.140;7.076;2023-02-16T10:24:51;24.67;;;17.97;;
15112;SDS011;7657;50.140;7.076;2023-02-16T10:27:25;22.97;;;15.33;;
15112;SDS011;7657;50.140;7.076;2023-02-16T10:29:58;48.60;;;32.37;;
15112;SDS011;7657;50.140;7.076;2023-02-16T10:32:26;27.83;;;17.13;;
15112;SDS011;7657;50.140;7.076;2023-02-16T10:35:00;24.90;;;17.37;;
15112;SDS011;7657;50.140;7.076;2023-02-16T10:37:40;21.43;;;14.67;;
15112;SDS011;7657;50.140;7.076;2023-02-16T10:40:21;46.47;;;27.33;;
15112;SDS011;7657;50.140;7.076;2023-02-16T10:42:56;22.07;;;15.30;;
15112;SDS011;7657;50.140;7.076;2023-02-16T10:45:29;21.03;;;14.53;;
15112;SDS011;7657;50.140;7.076;2023-02-16T10:47:58;62.33;;;41.07;;
15112;SDS011;7657;50.140;7.076;2023-02-16T10:50:29;23.90;;;15.80;;
15112;SDS011;7657;50.140;7.076;2023-02-16T10:53:03;43.60;;;30.87;;
15112;SDS011;7657;50.140;7.076;2023-02-16T10:55:35;17.57;;;12.60;;
15112;SDS011;7657;50.140;7.076;2023-02-16T10:58:02;17.70;;;13.37;;
15112;SDS011;7657;50.140;7.076;2023-02-16T11:00:44;19.63;;;12.93;;
15112;SDS011;7657;50.140;7.076;2023-02-16T11:03:17;19.40;;;13.17;;
15112;SDS011;7657;50.140;7.076;2023-02-16T11:05:49;17.47;;;12.87;;
15112;SDS011;7657;50.140;7.076;2023-02-16T11:08:17;21.40;;;14.30;;
15112;SDS011;7657;50.140;7.076;2023-02-16T11:10:45;19.10;;;13.47;;
15112;SDS011;7657;50.140;7.076;2023-02-16T11:13:23;20.03;;;14.10;;
15112;SDS011;7657;50.140;7.076;2023-02-16T11:15:52;19.93;;;13.87;;
15112;SDS011;7657;50.140;7.076;2023-02-16T11:18:24;18.67;;;13.03;;
15112;SDS011;7657;50.140;7.076;2023-02-16T11:20:58;19.50;;;13.10;;
15112;SDS011;7657;50.140;7.076;2023-02-16T11:23:27;18.07;;;12.60;;
15112;SDS011;7657;50.140;7.076;2023-02-16T11:25:56;18.57;;;12.90;;
15112;SDS011;7657;50.140;7.076;2023-02-16T11:28:27;17.13;;;13.07;;
15112;SDS011;7657;50.140;7.076;2023-02-16T11:30:58;18.70;;;11.77;;
15112;SDS011;7657;50.140;7.076;2023-02-16T11:33:29;17.50;;;12.20;;
15112;SDS011;7657;50.140;7.076;2023-02-16T11:36:00;17.27;;;12.33;;
15112;SDS011;7657;50.140;7.076;2023-02-16T11:38:30;16.30;;;11.57;;
15112;SDS011;7657;50.140;7.076;2023-02-16T11:40:58;18.73;;;12.37;;
15112;SDS011;7657;50.140;7.076;2023-02-16T11:43:28;17.87;;;11.50;;
15112;SDS011;7657;50.140;7.076;2023-02-16T11:45:59;15.73;;;11.43;;
15112;SDS011;7657;50.140;7.076;2023-02-16T11:48:29;17.07;;;11.87;;
15112;SDS011;7657;50.140;7.076;2023-02-16T11:50:58;18.90;;;12.13;;
15112;SDS011;7657;50.140;7.076;2023-02-16T11:53:29;14.80;;;10.57;;
15112;SDS011;7657;50.140;7.076;2023-02-16T11:56:09;18.80;;;11.90;;
15112;SDS011;7657;50.140;7.076;2023-02-16T11:58:38;17.60;;;11.90;;
15112;SDS011;7657;50.140;7.076;2023-02-16T12:01:10;17.77;;;12.17;;
15112;SDS011;7657;50.140;7.076;2023-02-16T12:03:58;20.20;;;12.83;;
15112;SDS011;7657;50.140;7.076;2023-02-16T12:06:40;17.27;;;11.37;;
15112;SDS011;7657;50.140;7.076;2023-02-16T12:09:18;16.50;;;11.70;;
15112;SDS011;7657;50.140;7.076;2023-02-16T12:11:56;17.37;;;12.40;;
15112;SDS011;7657;50.140;7.076;2023-02-16T12:14:39;15.70;;;10.57;;
15112;SDS011;7657;50.140;7.076;2023-02-16T12:17:14;24.23;;;12.33;;
15112;SDS011;7657;50.140;7.076;2023-02-16T12:19:51;17.63;;;11.57;;
15112;SDS011;7657;50.140;7.076;2023-02-16T12:22:30;15.33;;;11.23;;
15112;SDS011;7657;50.140;7.076;2023-02-16T12:25:11;14.50;;;10.90;;
15112;SDS011;7657;50.140;7.076;2023-02-16T12:27:49;19.17;;;11.97;;
15112;SDS011;7657;50.140;7.076;2023-02-16T12:30:23;16.73;;;11.60;;
15112;SDS011;7657;50.140;7.076;2023-02-16T12:33:04;17.47;;;12.33;;
15112;SDS011;7657;50.140;7.076;2023-02-16T12:35:49;16.87;;;12.10;;
15112;SDS011;7657;50.140;7.076;2023-02-16T12:38:33;15.10;;;10.83;;
15112;SDS011;7657;50.140;7.076;2023-02-16T12:41:11;17.17;;;11.07;;
15112;SDS011;7657;50.140;7.076;2023-02-16T12:43:44;19.17;;;13.80;;
15112;SDS011;7657;50.140;7.076;2023-02-16T12:46:14;19.23;;;15.17;;
15112;SDS011;7657;50.140;7.076;2023-02-16T12:48:47;26.60;;;19.53;;
15112;SDS011;7657;50.140;7.076;2023-02-16T12:51:20;16.63;;;11.50;;
15112;SDS011;7657;50.140;7.076;2023-02-16T12:53:54;15.83;;;11.60;;
15112;SDS011;7657;50.140;7.076;2023-02-16T12:56:26;18.27;;;12.30;;
15112;SDS011;7657;50.140;7.076;2023-02-16T12:59:02;22.67;;;15.83;;
15112;SDS011;7657;50.140;7.076;2023-02-16T13:01:33;20.10;;;13.20;;
15112;SDS011;7657;50.140;7.076;2023-02-16T13:04:03;18.43;;;12.50;;
15112;SDS011;7657;50.140;7.076;2023-02-16T13:06:41;30.17;;;21.07;;
15112;SDS011;7657;50.140;7.076;2023-02-16T13:09:14;17.90;;;12.20;;
15112;SDS011;7657;50.140;7.076;2023-02-16T13:11:51;17.03;;;12.00;;
15112;SDS011;7657;50.140;7.076;2023-02-16T13:14:22;17.23;;;12.17;;
15112;SDS011;7657;50.140;7.076;2023-02-16T13:16:54;17.10;;;11.47;;
15112;SDS011;7657;50.140;7.076;2023-02-16T13:19:24;16.50;;;11.50;;
15112;SDS011;7657;50.140;7.076;2023-02-16T13:22:05;16.07;;;11.20;;
15112;SDS011;7657;50.140;7.076;2023-02-16T13:24:52;14.97;;;10.70;;
15112;SDS011;7657;50.140;7.076;2023-02-16T13:27:31;18.97;;;11.80;;
15112;SDS011;7657;50.140;7.076;2023-02-16T13:30:23;16.23;;;11.83;;
15112;SDS011;7657;50.140;7.076;2023-02-16T13:33:09;18.97;;;12.97;;
15112;SDS011;7657;50.140;7.076;2023-02-16T13:35:48;21.03;;;16.47;;
15112;SDS011;7657;50.140;7.076;2023-02-16T13:38:34;15.50;;;11.70;;
15112;SDS011;7657;50.140;7.076;2023-02-16T13:41:28;16.60;;;11.37;;
15112;SDS011;7657;50.140;7.076;2023-02-16T13:44:00;16.43;;;11.57;;
15112;SDS011;7657;50.140;7.076;2023-02-16T13:46:33;18.33;;;12.57;;
15112;SDS011;7657;50.140;7.076;2023-02-16T13:49:04;16.93;;;11.83;;
15112;SDS011;7657;50.140;7.076;2023-02-16T13:51:38;15.60;;;11.33;;
15112;SDS011;7657;50.140;7.076;2023-02-16T13:54:12;14.80;;;11.07;;
15112;SDS011;7657;50.140;7.076;2023-02-16T13:56:50;16.93;;;11.90;;
15112;SDS011;7657;50.140;7.076;2023-02-16T14:02:17;16.37;;;11.23;;
15112;SDS011;7657;50.140;7.076;2023-02-16T14:08:16;16.93;;;11.00;;
15112;SDS011;7657;50.140;7.076;2023-02-16T14:10:56;17.87;;;12.40;;
15112;SDS011;7657;50.140;7.076;2023-02-16T14:13:42;15.50;;;12.03;;
15112;SDS011;7657;50.140;7.076;2023-02-16T14:16:13;17.33;;;12.30;;
15112;SDS011;7657;50.140;7.076;2023-02-16T14:18:56;15.57;;;11.33;;
15112;SDS011;7657;50.140;7.076;2023-02-16T14:21:26;16.70;;;11.53;;
15112;SDS011;7657;50.140;7.076;2023-02-16T14:24:00;17.33;;;12.30;;
15112;SDS011;7657;50.140;7.076;2023-02-16T14:26:28;14.87;;;10.50;;
15112;SDS011;7657;50.140;7.076;2023-02-16T14:29:11;16.17;;;11.13;;
15112;SDS011;7657;50.140;7.076;2023-02-16T14:31:43;18.93;;;12.27;;
15112;SDS011;7657;50.140;7.076;2023-02-16T14:34:17;16.00;;;11.97;;
15112;SDS011;7657;50.140;7.076;2023-02-16T14:39:54;16.97;;;11.07;;
15112;SDS011;7657;50.140;7.076;2023-02-16T14:42:29;16.00;;;11.13;;
15112;SDS011;7657;50.140;7.076;2023-02-16T14:45:04;15.93;;;11.63;;
15112;SDS011;7657;50.140;7.076;2023-02-16T14:48:11;17.37;;;12.07;;
15112;SDS011;7657;50.140;7.076;2023-02-16T14:50:56;16.90;;;11.63;;
15112;SDS011;7657;50.140;7.076;2023-02-16T14:53:55;18.17;;;12.60;;
15112;SDS011;7657;50.140;7.076;2023-02-16T14:56:40;21.57;;;13.70;;
15112;SDS011;7657;50.140;7.076;2023-02-16T14:59:13;17.57;;;12.07;;
15112;SDS011;7657;50.140;7.076;2023-02-16T15:01:50;15.30;;;11.30;;
15112;SDS011;7657;50.140;7.076;2023-02-16T15:04:25;18.60;;;10.93;;
15112;SDS011;7657;50.140;7.076;2023-02-16T15:06:53;14.40;;;10.13;;
15112;SDS011;7657;50.140;7.076;2023-02-16T15:09:23;18.03;;;11.60;;
15112;SDS011;7657;50.140;7.076;2023-02-16T15:11:53;18.03;;;11.20;;
15112;SDS011;7657;50.140;7.076;2023-02-16T15:14:40;15.00;;;11.33;;